createdAt,value
2017-08-30T00:00:04.797Z,22.10
2017-08-30T00:02:31.884Z,22.10
2017-08-30T00:04:58.953Z,22.00
2017-08-30T00:07:26.047Z,22.00
2017-08-30T00:09:53.112Z,22.10
2017-08-30T00:12:20.196Z,22.10
2017-08-30T00:14:47.259Z,22.10
2017-08-30T00:17:14.347Z,22.10
2017-08-30T00:19:41.408Z,22.10
2017-08-30T00:22:08.500Z,22.00
2017-08-30T00:24:41.547Z,22.00
2017-08-30T00:27:08.637Z,22.00
2017-08-30T00:29:35.701Z,22.00
2017-08-30T00:32:02.764Z,21.90
2017-08-30T00:34:29.854Z,21.90
2017-08-30T00:36:56.920Z,21.90
2017-08-30T00:39:24.005Z,21.90
2017-08-30T00:41:51.140Z,21.80
2017-08-30T00:44:18.229Z,21.80
2017-08-30T00:46:45.293Z,21.90
2017-08-30T00:49:12.376Z,21.80
2017-08-30T00:51:39.441Z,21.80
2017-08-30T00:54:06.529Z,21.80
2017-08-30T00:56:33.596Z,21.70
2017-08-30T00:59:01.452Z,21.70
2017-08-30T01:01:29.281Z,21.70
2017-08-30T01:03:56.449Z,21.70
2017-08-30T01:06:23.517Z,21.70
2017-08-30T01:08:50.610Z,21.60
2017-08-30T01:11:17.678Z,21.60
2017-08-30T01:13:44.770Z,21.60
2017-08-30T01:16:11.829Z,21.50
2017-08-30T01:18:39.685Z,21.60
2017-08-30T01:21:07.527Z,21.50
2017-08-30T01:23:34.588Z,21.50
2017-08-30T01:26:01.676Z,21.50
2017-08-30T01:28:28.746Z,21.50
2017-08-30T01:30:55.837Z,21.50
2017-08-30T01:33:22.901Z,21.50
2017-08-30T01:35:49.988Z,21.50
2017-08-30T01:38:17.056Z,21.50
2017-08-30T01:40:44.144Z,21.50
2017-08-30T01:43:11.973Z,21.50
2017-08-30T01:45:39.061Z,21.40
2017-08-30T01:48:06.129Z,21.50
2017-08-30T01:50:33.216Z,21.50
2017-08-30T01:53:00.277Z,21.50
2017-08-30T01:55:27.365Z,21.50
2017-08-30T01:57:54.441Z,21.40
2017-08-30T02:00:21.537Z,21.40
2017-08-30T02:02:48.604Z,21.30
2017-08-30T02:05:15.693Z,21.30
2017-08-30T02:07:42.781Z,21.40
2017-08-30T02:10:09.845Z,21.40
2017-08-30T02:12:36.937Z,21.40
2017-08-30T02:15:04.000Z,21.20
2017-08-30T02:17:31.089Z,21.20
2017-08-30T02:19:58.917Z,21.20
2017-08-30T02:22:26.009Z,21.20
2017-08-30T02:24:53.852Z,21.20
2017-08-30T02:27:20.941Z,21.20
2017-08-30T02:29:48.005Z,21.10
2017-08-30T02:32:15.089Z,21.10
2017-08-30T02:34:42.153Z,21.10
2017-08-30T02:37:09.242Z,21.10
2017-08-30T02:39:36.312Z,21.10
2017-08-30T02:42:03.405Z,21.10
2017-08-30T02:44:30.473Z,21.10
2017-08-30T02:46:57.562Z,21.10
2017-08-30T02:49:24.625Z,21.10
2017-08-30T02:51:51.723Z,21.00
2017-08-30T02:54:18.797Z,20.90
2017-08-30T02:56:45.885Z,21.00
2017-08-30T02:59:12.951Z,21.00
2017-08-30T03:01:40.020Z,20.90
2017-08-30T03:04:07.108Z,21.00
2017-08-30T03:06:34.173Z,21.00
2017-08-30T03:09:01.270Z,21.00
2017-08-30T03:11:28.328Z,20.90
2017-08-30T03:13:55.412Z,20.90
2017-08-30T03:16:22.473Z,20.80
2017-08-30T03:18:49.566Z,20.60
2017-08-30T03:21:16.633Z,20.60
2017-08-30T03:23:43.725Z,20.60
2017-08-30T03:26:11.557Z,20.50
2017-08-30T03:28:38.645Z,20.40
2017-08-30T03:31:06.478Z,20.50
2017-08-30T03:33:33.568Z,20.50
2017-08-30T03:36:01.401Z,20.50
2017-08-30T03:38:28.493Z,20.50
2017-08-30T03:40:55.554Z,20.50
2017-08-30T03:43:22.649Z,20.50
2017-08-30T03:45:49.721Z,20.50
2017-08-30T03:48:16.809Z,20.40
2017-08-30T03:50:43.881Z,20.40
2017-08-30T03:53:10.949Z,20.40
2017-08-30T03:55:38.052Z,20.30
2017-08-30T03:58:05.117Z,20.30
2017-08-30T04:00:32.212Z,20.20
2017-08-30T04:03:00.045Z,20.20
2017-08-30T04:05:27.140Z,20.20
2017-08-30T04:07:54.201Z,20.20
2017-08-30T04:10:22.074Z,20.10
2017-08-30T04:12:49.144Z,20.10
2017-08-30T04:15:16.241Z,20.00
2017-08-30T04:17:44.073Z,20.10
2017-08-30T04:20:11.160Z,20.00
2017-08-30T04:22:38.989Z,20.10
2017-08-30T04:25:06.077Z,20.10
2017-08-30T04:27:33.146Z,20.20
2017-08-30T04:30:00.253Z,20.20
2017-08-30T04:32:27.328Z,20.20
2017-08-30T04:34:55.185Z,20.10
2017-08-30T04:37:22.255Z,20.00
2017-08-30T04:39:49.353Z,20.00
2017-08-30T04:42:18.040Z,20.00
2017-08-30T04:44:46.380Z,19.90
2017-08-30T04:47:16.022Z,20.10
2017-08-30T04:49:43.191Z,20.00
2017-08-30T04:52:10.286Z,20.00
2017-08-30T04:54:37.358Z,20.00
2017-08-30T04:57:04.448Z,20.00
2017-08-30T04:59:32.288Z,20.10
2017-08-30T05:01:59.394Z,20.00
2017-08-30T05:04:26.465Z,20.10
2017-08-30T05:06:53.565Z,20.10
2017-08-30T05:09:21.393Z,20.10
2017-08-30T05:11:48.489Z,20.10
2017-08-30T05:14:15.559Z,20.20
2017-08-30T05:16:42.624Z,20.20
2017-08-30T05:19:09.721Z,20.30
2017-08-30T05:21:36.785Z,20.20
2017-08-30T05:24:03.853Z,20.30
2017-08-30T05:26:30.945Z,20.40
2017-08-30T05:28:58.013Z,20.40
2017-08-30T05:31:25.109Z,20.40
2017-08-30T05:34:17.664Z,20.50
2017-08-30T05:36:44.757Z,20.80
2017-08-30T05:39:12.584Z,21.00
2017-08-30T05:41:39.668Z,21.00
2017-08-30T05:44:06.729Z,21.00
2017-08-30T05:46:33.825Z,21.10
2017-08-30T05:49:00.894Z,21.20
2017-08-30T05:51:27.965Z,21.30
2017-08-30T05:53:55.059Z,21.30
2017-08-30T05:56:22.130Z,21.40
2017-08-30T05:58:49.201Z,21.40
2017-08-30T06:01:16.295Z,21.50
2017-08-30T06:03:43.365Z,21.60
2017-08-30T06:06:10.461Z,21.60
2017-08-30T06:08:38.297Z,21.70
2017-08-30T06:11:05.398Z,21.60
2017-08-30T06:13:32.470Z,21.70
2017-08-30T06:15:59.537Z,21.70
2017-08-30T06:18:26.625Z,21.80
2017-08-30T06:20:54.457Z,21.90
2017-08-30T06:23:21.528Z,21.90
2017-08-30T06:25:49.389Z,22.30
2017-08-30T06:28:16.453Z,22.30
2017-08-30T06:30:43.540Z,22.50
2017-08-30T06:33:10.613Z,22.60
2017-08-30T06:35:37.709Z,22.80
2017-08-30T06:38:04.773Z,23.10
2017-08-30T06:40:31.863Z,23.30
2017-08-30T06:42:58.944Z,23.60
2017-08-30T06:45:26.774Z,23.80
2017-08-30T06:47:53.873Z,23.80
2017-08-30T06:50:20.938Z,24.30
2017-08-30T06:52:48.033Z,24.40
2017-08-30T06:55:15.103Z,24.70
2017-08-30T06:57:42.197Z,24.90
2017-08-30T07:00:09.265Z,25.10
2017-08-30T07:02:36.353Z,25.40
2017-08-30T07:05:03.421Z,25.40
2017-08-30T07:07:30.518Z,25.40
2017-08-30T07:09:57.595Z,25.60
2017-08-30T07:12:24.681Z,25.60
2017-08-30T07:14:51.746Z,25.60
2017-08-30T07:17:18.809Z,25.60
2017-08-30T07:19:45.897Z,25.60
2017-08-30T07:22:13.730Z,25.70
2017-08-30T07:24:40.817Z,25.70
2017-08-30T07:27:07.885Z,25.80
2017-08-30T07:29:34.976Z,26.00
2017-08-30T07:32:02.054Z,26.10
2017-08-30T07:34:29.916Z,26.30
2017-08-30T07:36:57.757Z,26.40
2017-08-30T07:39:24.853Z,26.40
2017-08-30T07:41:51.918Z,26.50
2017-08-30T07:44:19.007Z,26.70
2017-08-30T07:46:46.074Z,26.80
2017-08-30T07:49:13.141Z,26.80
2017-08-30T07:51:40.228Z,26.80
2017-08-30T07:54:07.294Z,27.00
2017-08-30T07:56:34.380Z,27.10
2017-08-30T07:59:01.449Z,27.20
2017-08-30T08:01:28.537Z,27.40
2017-08-30T08:03:55.604Z,27.50
2017-08-30T08:06:22.693Z,27.60
2017-08-30T08:08:49.757Z,27.70
2017-08-30T08:11:16.854Z,27.80
2017-08-30T08:13:44.689Z,28.20
2017-08-30T08:16:11.781Z,28.10
2017-08-30T08:18:39.613Z,28.30
2017-08-30T08:21:06.690Z,28.30
2017-08-30T08:23:33.782Z,28.50
2017-08-30T08:26:00.851Z,28.60
2017-08-30T08:28:27.941Z,28.70
2017-08-30T08:30:55.007Z,28.70
2017-08-30T08:33:22.100Z,28.70
2017-08-30T08:35:49.176Z,28.40
2017-08-30T08:38:16.275Z,28.20
2017-08-30T08:40:43.341Z,28.10
2017-08-30T08:43:10.438Z,28.10
2017-08-30T08:45:37.503Z,28.10
2017-08-30T08:48:04.594Z,28.20
2017-08-30T08:50:31.661Z,28.20
2017-08-30T08:52:58.758Z,28.20
2017-08-30T08:55:25.821Z,28.10
2017-08-30T08:57:52.885Z,28.00
2017-08-30T09:00:19.972Z,27.90
2017-08-30T09:02:47.810Z,27.90
2017-08-30T09:05:14.905Z,27.90
2017-08-30T09:07:41.973Z,28.00
2017-08-30T09:10:09.073Z,28.10
2017-08-30T09:12:36.904Z,28.20
2017-08-30T09:15:04.021Z,28.20
2017-08-30T09:17:31.101Z,28.50
2017-08-30T09:19:58.198Z,28.70
2017-08-30T09:22:25.267Z,28.80
2017-08-30T09:24:52.357Z,28.70
2017-08-30T09:27:19.424Z,28.80
2017-08-30T09:29:46.489Z,28.80
2017-08-30T09:32:13.589Z,29.10
2017-08-30T09:34:40.657Z,29.50
2017-08-30T09:37:07.754Z,29.60
2017-08-30T09:39:34.825Z,29.70
2017-08-30T09:42:01.917Z,29.60
2017-08-30T09:44:29.746Z,29.50
2017-08-30T09:46:56.845Z,29.50
2017-08-30T09:49:23.914Z,29.50
2017-08-30T09:51:51.000Z,29.90
2017-08-30T09:54:18.061Z,30.10
2017-08-30T09:56:45.149Z,30.20
2017-08-30T09:59:12.221Z,30.30
2017-08-30T10:01:39.321Z,30.20
2017-08-30T10:04:06.389Z,30.20
2017-08-30T10:06:33.453Z,30.40
2017-08-30T10:09:00.545Z,30.60
2017-08-30T10:11:27.617Z,30.60
2017-08-30T10:13:55.473Z,30.70
2017-08-30T10:16:22.533Z,30.70
2017-08-30T10:18:50.402Z,30.90
2017-08-30T10:21:18.233Z,30.70
2017-08-30T10:23:45.325Z,30.70
2017-08-30T10:26:13.157Z,30.60
2017-08-30T10:28:40.253Z,30.60
2017-08-30T10:31:07.316Z,30.70
2017-08-30T10:33:34.407Z,30.70
2017-08-30T10:36:01.477Z,31.00
2017-08-30T10:38:29.314Z,31.30
2017-08-30T10:40:56.400Z,31.20
2017-08-30T10:43:24.229Z,31.40
2017-08-30T10:45:51.317Z,31.40
2017-08-30T10:48:18.387Z,31.70
2017-08-30T10:50:45.481Z,31.70
2017-08-30T10:53:12.547Z,31.40
2017-08-30T10:55:40.405Z,31.40
2017-08-30T10:58:07.479Z,31.40
2017-08-30T11:00:35.337Z,31.80
2017-08-30T11:03:02.405Z,31.70
2017-08-30T11:05:29.501Z,31.70
2017-08-30T11:07:56.569Z,31.70
2017-08-30T11:10:24.441Z,32.00
2017-08-30T11:12:51.510Z,32.00
2017-08-30T11:15:18.605Z,32.10
2017-08-30T11:17:45.688Z,32.40
2017-08-30T11:20:13.538Z,32.00
2017-08-30T11:22:40.641Z,32.00
2017-08-30T11:25:07.714Z,32.10
2017-08-30T11:27:34.808Z,32.00
2017-08-30T11:30:02.649Z,32.10
2017-08-30T11:32:29.722Z,32.10
2017-08-30T11:34:56.822Z,32.20
2017-08-30T11:37:23.888Z,32.40
2017-08-30T11:39:50.962Z,32.50
2017-08-30T11:42:18.829Z,32.40
2017-08-30T11:44:45.901Z,32.40
2017-08-30T11:47:12.969Z,32.50
2017-08-30T11:49:40.061Z,32.40
2017-08-30T11:52:07.134Z,32.30
2017-08-30T11:54:34.225Z,32.40
2017-08-30T11:57:01.357Z,32.20
2017-08-30T11:59:28.425Z,32.50
2017-08-30T12:01:55.518Z,32.60
2017-08-30T12:04:23.357Z,32.50
2017-08-30T12:06:50.445Z,32.50
2017-08-30T12:09:17.510Z,32.80
2017-08-30T12:11:44.572Z,32.80
2017-08-30T12:14:11.669Z,32.90
2017-08-30T12:16:38.742Z,32.90
2017-08-30T12:19:05.835Z,33.00
2017-08-30T12:21:32.903Z,32.90
2017-08-30T12:23:59.970Z,32.90
2017-08-30T12:26:27.065Z,33.10
2017-08-30T12:28:54.129Z,33.00
2017-08-30T12:31:21.193Z,32.70
2017-08-30T12:33:48.298Z,32.70
2017-08-30T12:36:15.369Z,32.70
2017-08-30T12:38:48.160Z,32.90
2017-08-30T12:41:15.220Z,32.90
2017-08-30T12:43:42.289Z,33.20
2017-08-30T12:46:09.381Z,33.10
2017-08-30T12:48:36.452Z,33.10
2017-08-30T12:51:03.545Z,33.00
2017-08-30T12:53:30.614Z,33.00
2017-08-30T12:55:57.676Z,33.00
2017-08-30T12:58:24.761Z,33.00
2017-08-30T13:00:51.825Z,33.00
2017-08-30T13:03:19.680Z,32.90
2017-08-30T13:05:46.746Z,32.90
2017-08-30T13:08:13.810Z,33.20
2017-08-30T13:10:40.906Z,33.10
2017-08-30T13:13:07.990Z,33.00
2017-08-30T13:15:35.085Z,33.00
2017-08-30T13:18:02.153Z,33.20
2017-08-30T13:20:29.225Z,33.30
2017-08-30T13:22:56.326Z,33.20
2017-08-30T13:25:23.397Z,33.30
2017-08-30T13:27:50.469Z,33.20
2017-08-30T13:30:18.337Z,33.10
2017-08-30T13:32:45.405Z,33.10
2017-08-30T13:35:13.244Z,33.20
2017-08-30T13:37:40.333Z,33.20
2017-08-30T13:40:07.401Z,33.20
2017-08-30T13:42:34.474Z,33.20
2017-08-30T13:45:01.573Z,33.20
2017-08-30T13:47:28.642Z,33.20
2017-08-30T13:49:55.706Z,33.10
2017-08-30T13:52:22.800Z,33.10
2017-08-30T13:54:50.642Z,33.10
2017-08-30T13:57:17.737Z,33.10
2017-08-30T13:59:44.801Z,33.20
2017-08-30T14:02:11.869Z,33.40
2017-08-30T14:04:38.962Z,33.30
2017-08-30T14:07:06.034Z,33.10
2017-08-30T14:09:33.126Z,33.20
2017-08-30T14:12:00.196Z,33.20
2017-08-30T14:14:27.265Z,33.20
2017-08-30T14:16:54.361Z,33.30
2017-08-30T14:19:21.424Z,33.20
2017-08-30T14:21:48.497Z,33.10
2017-08-30T14:24:15.592Z,33.20
2017-08-30T14:26:42.661Z,33.20
2017-08-30T14:29:09.733Z,33.30
2017-08-30T14:31:36.843Z,33.10
2017-08-30T14:34:03.909Z,33.00
2017-08-30T14:36:30.977Z,32.90
2017-08-30T14:38:58.072Z,32.80
2017-08-30T14:41:25.141Z,32.60
2017-08-30T14:43:52.213Z,32.50
2017-08-30T14:46:19.312Z,32.40
2017-08-30T14:48:46.382Z,32.20
2017-08-30T14:51:13.472Z,32.10
2017-08-30T14:53:41.311Z,31.90
2017-08-30T14:56:08.385Z,31.90
2017-08-30T14:58:36.241Z,31.80
2017-08-30T15:01:03.309Z,31.70
2017-08-30T15:03:31.180Z,31.70
2017-08-30T15:05:59.009Z,31.60
2017-08-30T15:08:26.089Z,31.60
2017-08-30T15:10:53.945Z,31.40
2017-08-30T15:13:21.009Z,31.40
2017-08-30T15:15:48.101Z,31.40
2017-08-30T15:18:15.169Z,31.40
2017-08-30T15:20:42.241Z,31.40
2017-08-30T15:23:09.341Z,31.40
2017-08-30T15:25:36.405Z,31.40
2017-08-30T15:28:03.465Z,31.40
2017-08-30T15:30:30.552Z,31.40
2017-08-30T15:32:57.630Z,31.40
2017-08-30T15:35:24.696Z,31.50
2017-08-30T15:37:51.788Z,31.40
2017-08-30T15:40:19.618Z,31.30
2017-08-30T15:42:46.689Z,31.30
2017-08-30T15:45:13.784Z,31.30
2017-08-30T15:47:40.853Z,31.20
2017-08-30T15:50:07.921Z,31.10
2017-08-30T15:52:35.008Z,31.00
2017-08-30T15:55:02.072Z,30.90
2017-08-30T15:57:29.167Z,31.00
2017-08-30T15:59:56.233Z,30.90
2017-08-30T16:02:23.299Z,30.80
2017-08-30T16:04:50.393Z,30.80
2017-08-30T16:07:17.465Z,30.80
2017-08-30T16:09:44.557Z,30.80
2017-08-30T16:12:11.625Z,30.80
2017-08-30T16:14:38.694Z,30.80
2017-08-30T16:17:05.789Z,30.80
2017-08-30T16:19:32.867Z,30.70
2017-08-30T16:21:59.941Z,30.60
2017-08-30T16:24:27.028Z,30.60
2017-08-30T16:26:54.098Z,30.40
2017-08-30T16:29:21.165Z,30.30
2017-08-30T16:31:48.269Z,30.20
2017-08-30T16:34:16.106Z,30.00
2017-08-30T16:36:43.196Z,30.00
2017-08-30T16:39:10.270Z,29.70
2017-08-30T16:41:38.646Z,29.70
2017-08-30T16:44:07.233Z,29.70
2017-08-30T16:46:35.626Z,29.70
2017-08-30T16:49:04.352Z,29.50
2017-08-30T16:51:33.655Z,29.40
2017-08-30T16:54:01.980Z,29.40
2017-08-30T16:56:29.193Z,29.40
2017-08-30T16:58:57.303Z,29.30
2017-08-30T17:01:25.266Z,29.30
2017-08-30T17:03:52.827Z,29.10
2017-08-30T17:06:21.960Z,29.00
2017-08-30T17:08:49.062Z,29.00
2017-08-30T17:11:16.130Z,29.00
2017-08-30T17:13:44.496Z,28.90
2017-08-30T17:16:13.082Z,28.80
2017-08-30T17:18:40.269Z,28.70
2017-08-30T17:21:08.748Z,28.50
2017-08-30T17:23:35.996Z,28.50
2017-08-30T17:26:04.278Z,28.40
2017-08-30T17:28:32.150Z,28.20
2017-08-30T17:31:00.727Z,28.20
2017-08-30T17:33:29.173Z,28.10
2017-08-30T17:35:56.333Z,28.00
2017-08-30T17:38:24.916Z,28.00
2017-08-30T17:40:51.985Z,28.00
2017-08-30T17:43:19.169Z,28.00
2017-08-30T17:45:46.247Z,27.90
2017-08-30T17:48:14.837Z,27.90
2017-08-30T17:50:43.475Z,27.90
2017-08-30T17:53:10.613Z,27.70
2017-08-30T17:55:39.666Z,27.80
2017-08-30T17:58:08.352Z,27.70
2017-08-30T18:00:35.609Z,27.70
2017-08-30T18:03:03.424Z,27.70
2017-08-30T18:05:31.788Z,27.70
2017-08-30T18:07:58.931Z,27.60
2017-08-30T18:10:27.104Z,27.50
2017-08-30T18:12:55.077Z,26.80
2017-08-30T18:15:22.178Z,26.80
2017-08-30T18:17:49.249Z,26.40
2017-08-30T18:20:17.889Z,26.10
2017-08-30T18:22:45.834Z,25.90
2017-08-30T18:25:12.905Z,25.90
2017-08-30T18:27:39.998Z,26.00
2017-08-30T18:30:07.070Z,26.00
2017-08-30T18:32:34.162Z,26.00
2017-08-30T18:35:01.237Z,25.90
2017-08-30T18:37:28.314Z,25.80
2017-08-30T18:39:55.409Z,25.60
2017-08-30T18:42:22.512Z,25.20
2017-08-30T18:44:49.592Z,25.40
2017-08-30T18:47:17.464Z,25.40
2017-08-30T18:49:45.355Z,25.10
2017-08-30T18:52:12.526Z,25.10
2017-08-30T18:54:39.658Z,25.30
2017-08-30T18:57:06.748Z,25.30
2017-08-30T18:59:33.852Z,25.50
2017-08-30T19:02:00.969Z,25.60
2017-08-30T19:04:28.045Z,25.50
2017-08-30T19:06:55.152Z,25.50
2017-08-30T19:09:22.265Z,25.60
2017-08-30T19:11:49.341Z,25.60
2017-08-30T19:14:16.420Z,25.50
2017-08-30T19:16:43.567Z,25.60
2017-08-30T19:19:11.081Z,25.60
2017-08-30T19:21:38.173Z,25.60
2017-08-30T19:24:05.269Z,25.50
2017-08-30T19:26:32.345Z,25.10
2017-08-30T19:28:59.445Z,24.90
2017-08-30T19:31:26.528Z,24.40
2017-08-30T19:33:53.612Z,24.50
2017-08-30T19:36:20.744Z,24.10
2017-08-30T19:38:47.829Z,23.60
2017-08-30T19:41:14.946Z,23.60
2017-08-30T19:43:42.046Z,23.80
2017-08-30T19:46:09.160Z,23.80
2017-08-30T19:48:36.285Z,23.60
2017-08-30T19:51:03.373Z,23.60
2017-08-30T19:53:30.456Z,23.70
2017-08-30T19:55:57.568Z,23.60
2017-08-30T19:58:24.649Z,23.70
2017-08-30T20:00:51.737Z,23.70
2017-08-30T20:03:18.862Z,23.70
2017-08-30T20:05:45.962Z,23.60
2017-08-30T20:08:13.045Z,23.60
2017-08-30T20:10:40.145Z,23.50
2017-08-30T20:13:07.213Z,23.40
2017-08-30T20:15:34.276Z,23.60
2017-08-30T20:18:01.387Z,23.50
2017-08-30T20:20:28.465Z,23.40
2017-08-30T20:22:55.561Z,23.30
2017-08-30T20:25:22.625Z,23.30
2017-08-30T20:27:49.688Z,23.30
2017-08-30T20:30:16.781Z,23.40
2017-08-30T20:32:43.848Z,23.40
2017-08-30T20:35:10.914Z,23.60
2017-08-30T20:37:38.134Z,23.60
2017-08-30T20:40:05.201Z,23.70
2017-08-30T20:42:32.273Z,23.60
2017-08-30T20:45:00.133Z,23.50
2017-08-30T20:47:27.197Z,23.40
2017-08-30T20:49:55.025Z,23.40
2017-08-30T20:52:22.253Z,23.40
2017-08-30T20:54:49.312Z,23.40
2017-08-30T20:57:16.400Z,23.40
2017-08-30T20:59:43.636Z,23.50
2017-08-30T21:02:10.705Z,23.70
2017-08-30T21:04:37.796Z,23.80
2017-08-30T21:07:04.856Z,23.80
2017-08-30T21:09:31.956Z,23.60
2017-08-30T21:11:59.789Z,23.40
2017-08-30T21:14:26.857Z,23.40
2017-08-30T21:16:53.948Z,23.30
2017-08-30T21:19:21.099Z,23.40
2017-08-30T21:21:48.185Z,23.50
2017-08-30T21:24:15.250Z,23.50
2017-08-30T21:26:42.321Z,23.50
2017-08-30T21:29:09.410Z,23.30
2017-08-30T21:31:36.477Z,23.20
2017-08-30T21:34:03.569Z,23.20
2017-08-30T21:36:30.639Z,23.10
2017-08-30T21:38:57.706Z,23.10
2017-08-30T21:41:24.797Z,23.20
2017-08-30T21:43:51.860Z,22.90
2017-08-30T21:46:18.955Z,23.00
2017-08-30T21:48:46.017Z,23.10
2017-08-30T21:51:13.083Z,23.10
2017-08-30T21:53:40.180Z,23.10
2017-08-30T21:56:07.242Z,23.10
2017-08-30T21:58:34.332Z,23.10
2017-08-30T22:01:01.402Z,23.20
2017-08-30T22:03:28.468Z,23.20
2017-08-30T22:05:55.552Z,23.00
2017-08-30T22:08:22.621Z,22.90
2017-08-30T22:10:49.725Z,23.00
2017-08-30T22:13:16.798Z,22.90
2017-08-30T22:15:43.875Z,23.00
2017-08-30T22:18:11.743Z,22.90
2017-08-30T22:20:39.577Z,22.90
2017-08-30T22:23:06.665Z,22.80
2017-08-30T22:25:33.732Z,22.60
2017-08-30T22:28:00.820Z,22.60
2017-08-30T22:30:27.887Z,22.80
2017-08-30T22:32:54.990Z,22.80
2017-08-30T22:35:22.097Z,22.80
2017-08-30T22:37:49.167Z,22.90
2017-08-30T22:40:16.252Z,22.70
2017-08-30T22:42:43.322Z,22.70
2017-08-30T22:45:10.414Z,22.70
2017-08-30T22:47:37.484Z,22.80
2017-08-30T22:50:04.549Z,22.70
2017-08-30T22:52:31.649Z,22.60
2017-08-30T22:54:58.726Z,22.60
2017-08-30T22:57:25.812Z,22.70
2017-08-30T22:59:52.881Z,22.80
2017-08-30T23:02:19.972Z,22.70
2017-08-30T23:04:47.037Z,22.60
2017-08-30T23:07:14.169Z,22.60
2017-08-30T23:09:41.256Z,22.70
2017-08-30T23:12:08.321Z,22.60
2017-08-30T23:14:35.413Z,22.70
2017-08-30T23:17:02.489Z,22.70
2017-08-30T23:19:29.577Z,22.70
2017-08-30T23:21:57.409Z,22.60
2017-08-30T23:24:24.468Z,22.60
2017-08-30T23:26:51.556Z,22.70
2017-08-30T23:29:18.621Z,22.70
2017-08-30T23:31:45.709Z,22.80
2017-08-30T23:34:12.773Z,22.80
2017-08-30T23:36:39.861Z,22.80
2017-08-30T23:39:06.929Z,22.80
2017-08-30T23:41:33.993Z,22.80
2017-08-30T23:44:01.080Z,22.80
2017-08-30T23:46:28.913Z,22.80
2017-08-30T23:48:56.009Z,22.70
2017-08-30T23:51:23.081Z,22.70
2017-08-30T23:53:50.174Z,22.70
2017-08-30T23:56:17.241Z,22.70
2017-08-30T23:58:45.069Z,22.60
